Time,TemperatureF,DewpointF,PressureIn,WindDirection,WindDirectionDegrees,WindSpeedMPH,WindSpeedGustMPH,Humidity,HourlyPrecipIn,Conditions,Clouds,dailyrainin,SoftwareType,DateUTC
2013-06-10 00:02:00,63.0,58.1,29.86,WSW,248,0.0,0.0,84,0.00,,,0.46,meteohub,2013-06-10 05:02:00,
2013-06-10 00:07:00,62.8,58.3,29.86,WSW,248,0.0,0.0,85,0.00,,,0.00,meteohub,2013-06-10 05:07:00,
2013-06-10 00:12:00,62.8,58.3,29.86,WSW,248,0.0,0.0,85,0.00,,,0.00,meteohub,2013-06-10 05:12:00,
2013-06-10 00:17:00,62.6,58.1,29.86,WSW,248,0.0,0.0,85,0.00,,,0.00,meteohub,2013-06-10 05:17:00,
2013-06-10 00:22:00,62.4,57.9,29.86,WSW,248,0.0,0.0,85,0.00,,,0.00,meteohub,2013-06-10 05:22:00,
2013-06-10 00:27:00,62.2,57.9,29.86,WSW,248,0.0,0.0,86,0.00,,,0.00,meteohub,2013-06-10 05:27:00,
2013-06-10 00:32:00,62.2,57.9,29.86,WSW,248,0.0,0.0,86,0.00,,,0.00,meteohub,2013-06-10 05:32:00,
2013-06-10 00:37:00,62.1,57.7,29.86,WSW,248,0.0,0.0,86,0.00,,,0.00,meteohub,2013-06-10 05:37:00,
2013-06-10 00:42:00,61.9,57.4,29.86,WSW,248,0.0,0.0,85,0.00,,,0.00,meteohub,2013-06-10 05:42:00,
2013-06-10 00:47:00,61.7,57.2,29.87,SW,225,0.0,0.0,85,0.00,,,0.00,meteohub,2013-06-10 05:47:00,
2013-06-10 00:52:00,61.5,57.4,29.87,West,270,0.0,0.0,86,0.00,,,0.00,meteohub,2013-06-10 05:52:00,
2013-06-10 00:57:00,61.7,57.4,29.86,SW,225,0.0,0.0,86,0.00,,,0.00,meteohub,2013-06-10 05:57:00,
2013-06-10 01:02:00,61.3,57.2,29.86,SW,225,0.0,0.0,86,0.00,,,0.00,meteohub,2013-06-10 06:02:00,
2013-06-10 01:07:00,61.3,57.2,29.86,SW,225,0.0,0.0,86,0.00,,,0.00,meteohub,2013-06-10 06:07:00,
2013-06-10 01:12:00,61.3,57.2,29.86,SW,225,0.0,0.0,86,0.00,,,0.00,meteohub,2013-06-10 06:12:00,
2013-06-10 01:17:00,61.2,57.2,29.86,SW,225,0.0,0.0,87,0.00,,,0.00,meteohub,2013-06-10 06:17:00,
2013-06-10 01:22:00,61.3,57.4,29.86,SW,225,0.0,0.0,87,0.00,,,0.00,meteohub,2013-06-10 06:22:00,
2013-06-10 01:27:00,61.2,57.2,29.86,SW,225,0.0,0.0,87,0.00,,,0.00,meteohub,2013-06-10 06:27:00,
2013-06-10 01:33:00,61.0,57.0,29.86,SW,225,0.0,0.0,87,0.00,,,0.00,meteohub,2013-06-10 06:33:00,
2013-06-10 01:38:00,61.0,57.0,29.86,SW,225,0.0,0.0,87,0.00,,,0.00,meteohub,2013-06-10 06:38:00,
2013-06-10 01:43:00,60.8,56.8,29.86,WSW,248,0.0,0.0,87,0.00,,,0.00,meteohub,2013-06-10 06:43:00,
2013-06-10 01:48:00,60.8,56.8,29.86,SW,225,0.0,0.0,87,0.00,,,0.00,meteohub,2013-06-10 06:48:00,
2013-06-10 01:53:00,60.8,56.8,29.86,SW,225,0.0,0.0,87,0.00,,,0.00,meteohub,2013-06-10 06:53:00,
2013-06-10 01:58:00,60.8,57.2,29.86,West,270,0.0,0.0,88,0.00,,,0.00,meteohub,2013-06-10 06:58:00,
2013-06-10 02:03:00,60.8,57.2,29.86,WSW,248,0.0,0.0,88,0.00,,,0.00,meteohub,2013-06-10 07:03:00,
2013-06-10 02:08:00,61.0,57.4,29.86,South,180,0.0,0.0,88,0.00,,,0.00,meteohub,2013-06-10 07:08:00,
2013-06-10 02:13:00,60.8,57.2,29.86,SSE,158,0.0,0.0,88,0.00,,,0.00,meteohub,2013-06-10 07:13:00,
2013-06-10 02:18:00,60.8,57.2,29.84,WSW,248,0.0,0.0,88,0.00,,,0.00,meteohub,2013-06-10 07:18:00,
2013-06-10 02:23:00,61.0,57.4,29.84,SSE,158,0.0,0.0,88,0.00,,,0.00,meteohub,2013-06-10 07:23:00,
2013-06-10 02:28:00,61.0,57.4,29.84,SW,225,0.0,0.0,88,0.00,,,0.00,meteohub,2013-06-10 07:28:00,
2013-06-10 02:33:00,61.3,57.7,29.84,WSW,248,0.0,0.0,88,0.00,,,0.00,meteohub,2013-06-10 07:33:00,
2013-06-10 02:38:00,61.2,57.6,29.85,SE,135,0.0,0.0,88,0.00,,,0.00,meteohub,2013-06-10 07:38:00,
2013-06-10 02:43:00,61.3,57.7,29.85,ESE,113,0.0,0.0,88,0.00,,,0.00,meteohub,2013-06-10 07:43:00,
2013-06-10 02:48:00,61.3,57.7,29.85,SSE,158,0.0,0.0,88,0.00,,,0.00,meteohub,2013-06-10 07:48:00,
2013-06-10 02:53:00,61.3,57.7,29.85,ESE,113,0.0,0.0,88,0.00,,,0.00,meteohub,2013-06-10 07:53:00,
2013-06-10 02:58:00,61.3,57.7,29.84,SE,135,0.0,0.0,88,0.00,,,0.00,meteohub,2013-06-10 07:58:00,
2013-06-10 03:03:00,61.3,57.7,29.84,South,180,0.0,0.0,88,0.00,,,0.00,meteohub,2013-06-10 08:03:00,
2013-06-10 03:08:00,61.3,57.7,29.84,SSE,158,0.0,0.0,88,0.00,,,0.00,meteohub,2013-06-10 08:08:00,
2013-06-10 03:13:00,61.3,57.7,29.84,East,90,0.0,0.0,88,0.00,,,0.00,meteohub,2013-06-10 08:13:00,
2013-06-10 03:18:00,61.3,57.7,29.83,East,90,0.0,0.0,88,0.00,,,0.00,meteohub,2013-06-10 08:18:00,
2013-06-10 03:23:00,61.2,57.6,29.83,South,180,0.0,0.0,88,0.00,,,0.00,meteohub,2013-06-10 08:23:00,
2013-06-10 03:28:00,61.2,57.6,29.83,SW,225,0.0,0.0,88,0.00,,,0.00,meteohub,2013-06-10 08:28:00,
2013-06-10 03:33:00,61.3,57.7,29.83,SW,225,0.0,0.0,88,0.00,,,0.00,meteohub,2013-06-10 08:33:00,
2013-06-10 03:38:00,61.0,57.4,29.84,SW,225,0.0,0.0,88,0.00,,,0.00,meteohub,2013-06-10 08:38:00,
2013-06-10 03:43:00,61.0,57.4,29.84,SW,225,0.0,0.0,88,0.00,,,0.00,meteohub,2013-06-10 08:43:00,
2013-06-10 03:48:00,60.6,57.0,29.84,South,180,0.0,0.0,88,0.00,,,0.00,meteohub,2013-06-10 08:48:00,
2013-06-10 03:53:00,60.6,57.0,29.84,SE,135,0.0,0.0,88,0.00,,,0.00,meteohub,2013-06-10 08:53:00,
2013-06-10 03:58:00,60.3,56.7,29.84,SW,225,0.0,0.0,88,0.00,,,0.00,meteohub,2013-06-10 08:58:00,
2013-06-10 04:03:00,60.1,56.5,29.84,SSW,203,2.0,0.0,88,0.00,,,0.00,meteohub,2013-06-10 09:03:00,
2013-06-10 04:08:00,60.1,56.5,29.84,South,180,3.0,3.0,88,0.00,,,0.00,meteohub,2013-06-10 09:08:00,
2013-06-10 04:13:00,60.6,57.4,29.84,WSW,248,1.0,3.0,89,0.00,,,0.00,meteohub,2013-06-10 09:13:00,
2013-06-10 04:18:00,60.6,57.4,29.85,SW,225,3.0,3.0,89,0.00,,,0.00,meteohub,2013-06-10 09:18:00,
2013-06-10 04:23:00,61.0,57.7,29.85,SW,225,4.0,4.0,89,0.00,,,0.00,meteohub,2013-06-10 09:23:00,
2013-06-10 04:28:00,61.7,58.5,29.84,SSW,203,3.0,4.0,89,0.00,,,0.00,meteohub,2013-06-10 09:28:00,
2013-06-10 04:33:00,62.4,59.2,29.84,WSW,248,4.0,4.0,89,0.00,,,0.00,meteohub,2013-06-10 09:33:00,
2013-06-10 04:38:00,63.0,59.7,29.84,South,180,4.0,4.0,89,0.00,,,0.00,meteohub,2013-06-10 09:38:00,
2013-06-10 04:43:00,63.5,59.9,29.84,WSW,248,4.0,5.0,88,0.00,,,0.00,meteohub,2013-06-10 09:43:00,
2013-06-10 04:48:00,63.9,60.3,29.84,WSW,248,4.0,5.0,88,0.00,,,0.00,meteohub,2013-06-10 09:48:00,
2013-06-10 04:53:00,64.0,60.1,29.84,SW,225,4.0,5.0,87,0.00,,,0.00,meteohub,2013-06-10 09:53:00,
2013-06-10 04:58:00,64.4,60.4,29.84,SW,225,4.0,5.0,87,0.00,,,0.00,meteohub,2013-06-10 09:58:00,
2013-06-10 05:03:00,64.6,60.6,29.84,SW,225,5.0,5.0,87,0.00,,,0.00,meteohub,2013-06-10 10:03:00,
2013-06-10 05:08:00,64.8,60.4,29.84,WNW,293,4.0,7.0,86,0.00,,,0.00,meteohub,2013-06-10 10:08:00,
2013-06-10 05:13:00,64.9,60.6,29.84,SW,225,6.0,7.0,86,0.00,,,0.00,meteohub,2013-06-10 10:13:00,
2013-06-10 05:18:00,64.9,60.6,29.84,SW,225,4.0,6.0,86,0.00,,,0.00,meteohub,2013-06-10 10:18:00,
2013-06-10 05:23:00,64.9,60.3,29.84,WSW,248,5.0,6.0,85,0.00,,,0.00,meteohub,2013-06-10 10:23:00,
2013-06-10 05:28:00,64.9,60.3,29.84,WSW,248,4.0,6.0,85,0.00,,,0.00,meteohub,2013-06-10 10:28:00,
2013-06-10 05:33:00,65.1,60.4,29.84,WSW,248,4.0,6.0,85,0.00,,,0.00,meteohub,2013-06-10 10:33:00,
2013-06-10 05:38:00,65.1,60.4,29.85,WSW,248,3.0,6.0,85,0.00,,,0.00,meteohub,2013-06-10 10:38:00,
2013-06-10 05:43:00,64.9,60.3,29.86,WNW,293,1.0,6.0,85,0.00,,,0.00,meteohub,2013-06-10 10:43:00,
2013-06-10 05:48:00,64.9,60.3,29.86,West,270,4.0,5.0,85,0.00,,,0.00,meteohub,2013-06-10 10:48:00,
2013-06-10 05:53:00,64.9,59.9,29.86,NW,315,3.0,5.0,84,0.00,,,0.00,meteohub,2013-06-10 10:53:00,
2013-06-10 05:58:00,64.9,59.9,29.86,West,270,1.0,5.0,84,0.00,,,0.00,meteohub,2013-06-10 10:58:00,
2013-06-10 06:03:00,64.9,59.9,29.86,West,270,0.0,5.0,84,0.00,,,0.00,meteohub,2013-06-10 11:03:00,
2013-06-10 06:08:00,64.9,59.9,29.86,NW,315,0.0,3.0,84,0.00,,,0.00,meteohub,2013-06-10 11:08:00,
2013-06-10 06:13:00,64.6,59.7,29.86,WNW,293,0.0,2.0,84,0.00,,,0.00,meteohub,2013-06-10 11:13:00,
2013-06-10 06:18:00,64.4,59.5,29.87,West,270,0.0,0.0,84,0.00,,,0.00,meteohub,2013-06-10 11:18:00,
2013-06-10 06:23:00,64.2,59.4,29.87,NW,315,0.0,0.0,84,0.00,,,0.00,meteohub,2013-06-10 11:23:00,
2013-06-10 06:28:00,64.0,59.2,29.87,West,270,0.0,0.0,84,0.00,,,0.00,meteohub,2013-06-10 11:28:00,
2013-06-10 06:33:00,64.2,59.5,29.87,West,270,0.0,0.0,85,0.00,,,0.00,meteohub,2013-06-10 11:33:00,
2013-06-10 06:39:00,63.9,59.2,29.88,West,270,0.0,1.0,85,0.00,,,0.00,meteohub,2013-06-10 11:39:00,
2013-06-10 06:44:00,63.7,59.0,29.88,SW,225,0.0,1.0,85,0.00,,,0.00,meteohub,2013-06-10 11:44:00,
2013-06-10 06:49:00,63.7,59.0,29.88,WNW,293,0.0,1.0,85,0.00,,,0.00,meteohub,2013-06-10 11:49:00,
2013-06-10 06:54:00,63.9,59.2,29.88,West,270,0.0,0.0,85,0.00,,,0.00,meteohub,2013-06-10 11:54:00,
2013-06-10 06:59:00,63.7,59.0,29.88,WSW,248,0.0,0.0,85,0.00,,,0.00,meteohub,2013-06-10 11:59:00,
2013-06-10 07:04:00,63.5,58.8,29.88,SW,225,0.0,0.0,85,0.00,,,0.00,meteohub,2013-06-10 12:04:00,
2013-06-10 07:09:00,63.5,59.2,29.88,West,270,0.0,0.0,86,0.00,,,0.00,meteohub,2013-06-10 12:09:00,
2013-06-10 07:14:00,63.5,59.2,29.88,West,270,0.0,0.0,86,0.00,,,0.00,meteohub,2013-06-10 12:14:00,
2013-06-10 07:19:00,63.7,59.4,29.88,WSW,248,2.0,0.0,86,0.00,,,0.00,meteohub,2013-06-10 12:19:00,
2013-06-10 07:24:00,63.7,59.4,29.88,West,270,2.0,2.0,86,0.00,,,0.00,meteohub,2013-06-10 12:24:00,
2013-06-10 07:29:00,63.9,59.5,29.88,SW,225,2.0,3.0,86,0.00,,,0.00,meteohub,2013-06-10 12:29:00,
2013-06-10 07:34:00,64.2,59.9,29.88,WSW,248,2.0,3.0,86,0.00,,,0.00,meteohub,2013-06-10 12:34:00,
2013-06-10 07:39:00,64.4,60.1,29.87,West,270,3.0,3.0,86,0.00,,,0.00,meteohub,2013-06-10 12:39:00,
2013-06-10 07:44:00,64.4,60.1,29.87,NW,315,2.0,3.0,86,0.00,,,0.00,meteohub,2013-06-10 12:44:00,
2013-06-10 07:49:00,64.6,60.3,29.87,West,270,3.0,4.0,86,0.00,,,0.00,meteohub,2013-06-10 12:49:00,
2013-06-10 07:54:00,65.1,60.8,29.87,WNW,293,3.0,4.0,86,0.00,,,0.00,meteohub,2013-06-10 12:54:00,
2013-06-10 07:59:00,65.7,61.3,29.88,NW,315,6.0,6.0,86,0.00,,,0.00,meteohub,2013-06-10 12:59:00,
2013-06-10 08:04:00,65.8,61.5,29.88,West,270,5.0,5.0,86,0.00,,,0.00,meteohub,2013-06-10 13:04:00,
2013-06-10 08:09:00,66.0,61.7,29.88,WNW,293,3.0,6.0,86,0.00,,,0.00,meteohub,2013-06-10 13:09:00,
2013-06-10 08:14:00,66.4,62.1,29.88,West,270,4.0,6.0,86,0.00,,,0.00,meteohub,2013-06-10 13:14:00,
2013-06-10 08:19:00,66.7,62.1,29.89,WSW,248,4.0,6.0,85,0.00,,,0.00,meteohub,2013-06-10 13:19:00,
2013-06-10 08:24:00,67.1,62.4,29.89,WNW,293,3.0,4.0,85,0.00,,,0.00,meteohub,2013-06-10 13:24:00,
2013-06-10 08:29:00,67.3,62.6,29.89,WSW,248,3.0,4.0,85,0.00,,,0.00,meteohub,2013-06-10 13:29:00,
2013-06-10 08:34:00,67.5,62.8,29.89,West,270,4.0,7.0,85,0.00,,,0.00,meteohub,2013-06-10 13:34:00,
2013-06-10 08:39:00,67.8,63.1,29.89,WSW,248,3.0,7.0,85,0.00,,,0.00,meteohub,2013-06-10 13:39:00,
2013-06-10 08:44:00,68.0,63.0,29.88,West,270,2.0,7.0,84,0.00,,,0.00,meteohub,2013-06-10 13:44:00,
2013-06-10 08:49:00,68.2,63.1,29.88,WNW,293,2.0,4.0,84,0.00,,,0.00,meteohub,2013-06-10 13:49:00,
2013-06-10 08:54:00,68.5,63.5,29.88,SSW,203,0.0,4.0,84,0.00,,,0.00,meteohub,2013-06-10 13:54:00,
2013-06-10 08:59:00,68.9,63.5,29.88,WSW,248,2.0,4.0,83,0.00,,,0.00,meteohub,2013-06-10 13:59:00,
2013-06-10 09:04:00,69.3,63.5,29.88,South,180,0.0,3.0,82,0.00,,,0.00,meteohub,2013-06-10 14:04:00,
2013-06-10 09:09:00,69.6,63.5,29.88,NW,315,4.0,4.0,81,0.00,,,0.00,meteohub,2013-06-10 14:09:00,
2013-06-10 09:14:00,70.2,64.0,29.88,WSW,248,0.0,4.0,81,0.00,,,0.00,meteohub,2013-06-10 14:14:00,
2013-06-10 09:19:00,70.3,63.9,29.88,NW,315,0.0,4.0,80,0.00,,,0.00,meteohub,2013-06-10 14:19:00,
2013-06-10 09:24:00,70.5,63.7,29.88,West,270,3.0,4.0,79,0.00,,,0.00,meteohub,2013-06-10 14:24:00,
2013-06-10 09:29:00,70.7,63.5,29.88,WNW,293,0.0,0.0,78,0.00,,,0.00,meteohub,2013-06-10 14:29:00,
2013-06-10 09:34:00,70.7,63.5,29.88,WNW,293,4.0,4.0,78,0.00,,,0.00,meteohub,2013-06-10 14:34:00,
2013-06-10 09:39:00,70.9,63.7,29.88,West,270,4.0,4.0,78,0.00,,,0.00,meteohub,2013-06-10 14:39:00,
2013-06-10 09:44:00,70.9,63.7,29.88,West,270,0.0,4.0,78,0.00,,,0.00,meteohub,2013-06-10 14:44:00,
2013-06-10 09:50:00,71.1,63.5,29.88,West,270,2.0,4.0,77,0.00,,,0.00,meteohub,2013-06-10 14:50:00,
2013-06-10 09:55:00,71.1,63.5,29.88,NW,315,0.0,4.0,77,0.00,,,0.00,meteohub,2013-06-10 14:55:00,
2013-06-10 10:00:00,71.4,63.9,29.89,West,270,3.0,4.0,77,0.00,,,0.00,meteohub,2013-06-10 15:00:00,
2013-06-10 10:05:00,71.6,63.7,29.89,West,270,4.0,4.0,76,0.00,,,0.00,meteohub,2013-06-10 15:05:00,
2013-06-10 10:10:00,71.6,63.7,29.89,WSW,248,4.0,4.0,76,0.00,,,0.00,meteohub,2013-06-10 15:10:00,
2013-06-10 10:15:00,72.1,64.2,29.89,West,270,0.0,4.0,76,0.00,,,0.00,meteohub,2013-06-10 15:15:00,
2013-06-10 10:20:00,72.3,64.4,29.88,East,90,2.0,4.0,76,0.00,,,0.00,meteohub,2013-06-10 15:20:00,
2013-06-10 10:25:00,72.3,64.4,29.88,NW,315,2.0,4.0,76,0.00,,,0.00,meteohub,2013-06-10 15:25:00,
2013-06-10 10:30:00,72.9,64.4,29.88,WSW,248,5.0,5.0,75,0.00,,,0.00,meteohub,2013-06-10 15:30:00,
2013-06-10 10:35:00,72.9,64.4,29.87,West,270,6.0,6.0,75,0.00,,,0.00,meteohub,2013-06-10 15:35:00,
2013-06-10 10:40:00,73.0,64.2,29.87,WNW,293,7.0,7.0,74,0.00,,,0.00,meteohub,2013-06-10 15:40:00,
2013-06-10 10:45:00,73.4,64.9,29.87,NW,315,2.0,7.0,75,0.00,,,0.00,meteohub,2013-06-10 15:45:00,
2013-06-10 10:50:00,73.4,64.6,29.87,WSW,248,8.0,8.0,74,0.00,,,0.00,meteohub,2013-06-10 15:50:00,
2013-06-10 10:55:00,73.9,64.8,29.88,NW,315,6.0,8.0,73,0.00,,,0.00,meteohub,2013-06-10 15:55:00,
2013-06-10 11:00:00,74.1,64.6,29.88,WSW,248,6.0,8.0,72,0.00,,,0.00,meteohub,2013-06-10 16:00:00,
2013-06-10 11:05:00,74.3,64.8,29.88,WSW,248,3.0,8.0,72,0.00,,,0.00,meteohub,2013-06-10 16:05:00,
2013-06-10 11:10:00,74.5,64.9,29.88,South,180,4.0,6.0,72,0.00,,,0.00,meteohub,2013-06-10 16:10:00,
2013-06-10 11:15:00,74.5,64.9,29.88,WNW,293,6.0,6.0,72,0.00,,,0.00,meteohub,2013-06-10 16:15:00,
2013-06-10 11:20:00,74.8,65.7,29.87,SW,225,4.0,6.0,73,0.00,,,0.00,meteohub,2013-06-10 16:20:00,
2013-06-10 11:25:00,75.4,65.7,29.87,NW,315,4.0,6.0,72,0.00,,,0.00,meteohub,2013-06-10 16:25:00,
2013-06-10 11:30:00,75.6,65.8,29.87,West,270,3.0,6.0,72,0.00,,,0.00,meteohub,2013-06-10 16:30:00,
2013-06-10 11:35:00,75.9,66.2,29.86,South,180,7.0,7.0,72,0.00,,,0.00,meteohub,2013-06-10 16:35:00,
2013-06-10 11:40:00,75.9,65.8,29.86,WNW,293,2.0,7.0,71,0.00,,,0.00,meteohub,2013-06-10 16:40:00,
2013-06-10 11:45:00,76.5,65.5,29.86,SSW,203,5.0,7.0,69,0.00,,,0.00,meteohub,2013-06-10 16:45:00,
2013-06-10 11:50:00,76.5,65.5,29.86,West,270,5.0,7.0,69,0.00,,,0.00,meteohub,2013-06-10 16:50:00,
2013-06-10 11:55:00,76.6,65.7,29.86,WNW,293,4.0,5.0,69,0.00,,,0.00,meteohub,2013-06-10 16:55:00,
2013-06-10 12:00:00,76.8,65.8,29.86,South,180,3.0,6.0,69,0.00,,,0.00,meteohub,2013-06-10 17:00:00,
2013-06-10 12:05:00,77.0,66.4,29.86,WSW,248,2.0,6.0,70,0.00,,,0.00,meteohub,2013-06-10 17:05:00,
2013-06-10 12:10:00,77.2,66.6,29.86,WSW,248,3.0,6.0,70,0.00,,,0.00,meteohub,2013-06-10 17:10:00,
2013-06-10 12:15:00,77.5,66.9,29.86,WSW,248,4.0,6.0,70,0.00,,,0.00,meteohub,2013-06-10 17:15:00,
2013-06-10 12:20:00,77.5,66.9,29.86,WSW,248,4.0,6.0,70,0.00,,,0.00,meteohub,2013-06-10 17:20:00,
2013-06-10 12:25:00,77.7,67.1,29.86,WSW,248,4.0,5.0,70,0.00,,,0.00,meteohub,2013-06-10 17:25:00,
2013-06-10 12:30:00,77.9,67.8,29.86,SSW,203,5.0,5.0,71,0.00,,,0.00,meteohub,2013-06-10 17:30:00,
2013-06-10 12:35:00,78.3,67.3,29.87,SSW,203,10.0,10.0,69,0.00,,,0.00,meteohub,2013-06-10 17:35:00,
2013-06-10 12:40:00,78.6,67.6,29.86,WSW,248,5.0,10.0,69,0.00,,,0.00,meteohub,2013-06-10 17:40:00,
2013-06-10 12:45:00,78.8,67.8,29.86,SW,225,6.0,10.0,69,0.00,,,0.00,meteohub,2013-06-10 17:45:00,
2013-06-10 12:50:00,79.3,68.4,29.86,WSW,248,7.0,10.0,69,0.00,,,0.00,meteohub,2013-06-10 17:50:00,
2013-06-10 12:55:00,79.5,68.5,29.85,SW,225,4.0,9.0,69,0.00,,,0.00,meteohub,2013-06-10 17:55:00,
2013-06-10 13:00:00,79.7,68.2,29.85,South,180,9.0,9.0,68,0.00,,,0.00,meteohub,2013-06-10 18:00:00,
2013-06-10 13:05:00,79.9,68.4,29.85,SW,225,9.0,9.0,68,0.00,,,0.00,meteohub,2013-06-10 18:05:00,
2013-06-10 13:10:00,80.1,68.2,29.85,SW,225,6.0,9.0,67,0.00,,,0.00,meteohub,2013-06-10 18:10:00,
2013-06-10 13:15:00,80.2,68.7,29.85,NW,315,4.0,9.0,68,0.00,,,0.00,meteohub,2013-06-10 18:15:00,
2013-06-10 13:20:00,80.4,68.9,29.85,NW,315,6.0,9.0,68,0.00,,,0.00,meteohub,2013-06-10 18:20:00,
2013-06-10 13:25:00,80.6,69.1,29.85,WSW,248,5.0,7.0,68,0.00,,,0.00,meteohub,2013-06-10 18:25:00,
2013-06-10 13:30:00,80.8,69.3,29.85,WNW,293,3.0,7.0,68,0.00,,,0.00,meteohub,2013-06-10 18:30:00,
2013-06-10 13:35:00,81.0,69.8,29.85,West,270,7.0,7.0,69,0.00,,,0.00,meteohub,2013-06-10 18:35:00,
2013-06-10 13:41:00,81.1,70.0,29.85,SSW,203,6.0,7.0,69,0.00,,,0.00,meteohub,2013-06-10 18:41:00,
2013-06-10 13:46:00,81.3,69.8,29.85,WSW,248,5.0,8.0,68,0.00,,,0.00,meteohub,2013-06-10 18:46:00,
2013-06-10 13:51:00,81.5,70.0,29.85,West,270,5.0,8.0,68,0.00,,,0.00,meteohub,2013-06-10 18:51:00,
2013-06-10 13:56:00,81.7,70.5,29.85,WSW,248,6.0,8.0,69,0.00,,,0.00,meteohub,2013-06-10 18:56:00,
2013-06-10 14:01:00,81.9,70.7,29.85,SE,135,4.0,9.0,69,0.00,,,0.00,meteohub,2013-06-10 19:01:00,
2013-06-10 14:06:00,82.2,71.1,29.85,North,0,6.0,9.0,69,0.00,,,0.00,meteohub,2013-06-10 19:06:00,
2013-06-10 14:11:00,82.6,71.4,29.85,WSW,248,7.0,7.0,69,0.00,,,0.00,meteohub,2013-06-10 19:11:00,
2013-06-10 14:16:00,82.8,71.6,29.85,NW,315,7.0,7.0,69,0.00,,,0.00,meteohub,2013-06-10 19:16:00,
2013-06-10 14:21:00,83.3,71.6,29.84,WSW,248,7.0,8.0,68,0.00,,,0.00,meteohub,2013-06-10 19:21:00,
2013-06-10 14:26:00,83.3,71.6,29.84,NW,315,7.0,8.0,68,0.00,,,0.00,meteohub,2013-06-10 19:26:00,
2013-06-10 14:31:00,83.5,71.4,29.84,WSW,248,8.0,8.0,67,0.00,,,0.00,meteohub,2013-06-10 19:31:00,
2013-06-10 14:36:00,83.7,71.6,29.83,NW,315,7.0,11.0,67,0.00,,,0.00,meteohub,2013-06-10 19:36:00,
2013-06-10 14:41:00,83.8,71.8,29.83,WSW,248,5.0,11.0,67,0.00,,,0.00,meteohub,2013-06-10 19:41:00,
2013-06-10 14:46:00,84.0,72.0,29.83,West,270,6.0,8.0,67,0.00,,,0.00,meteohub,2013-06-10 19:46:00,
2013-06-10 14:51:00,84.4,72.1,29.83,SW,225,5.0,7.0,67,0.00,,,0.00,meteohub,2013-06-10 19:51:00,
2013-06-10 14:56:00,84.6,72.3,29.82,SW,225,4.0,9.0,67,0.00,,,0.00,meteohub,2013-06-10 19:56:00,
2013-06-10 15:01:00,85.1,73.4,29.82,South,180,9.0,9.0,68,0.00,,,0.00,meteohub,2013-06-10 20:01:00,
2013-06-10 15:06:00,85.5,72.9,29.82,South,180,6.0,9.0,66,0.00,,,0.00,meteohub,2013-06-10 20:06:00,
2013-06-10 15:11:00,85.3,72.7,29.82,West,270,3.0,9.0,66,0.00,,,0.00,meteohub,2013-06-10 20:11:00,
2013-06-10 15:16:00,85.5,73.2,29.82,NW,315,6.0,9.0,67,0.00,,,0.00,meteohub,2013-06-10 20:16:00,
2013-06-10 15:21:00,85.5,72.9,29.82,South,180,4.0,6.0,66,0.00,,,0.00,meteohub,2013-06-10 20:21:00,
2013-06-10 15:27:00,85.6,73.0,29.82,West,270,4.0,6.0,66,0.00,,,0.00,meteohub,2013-06-10 20:27:00,
2013-06-10 15:32:00,85.8,73.2,29.82,WNW,293,2.0,6.0,66,0.00,,,0.00,meteohub,2013-06-10 20:32:00,
2013-06-10 15:37:00,86.0,73.2,29.83,West,270,2.0,6.0,66,0.00,,,0.00,meteohub,2013-06-10 20:37:00,
2013-06-10 15:42:00,86.2,73.4,29.83,WSW,248,4.0,4.0,66,0.00,,,0.00,meteohub,2013-06-10 20:42:00,
2013-06-10 15:47:00,86.5,73.8,29.83,West,270,4.0,6.0,66,0.00,,,0.00,meteohub,2013-06-10 20:47:00,
2013-06-10 15:52:00,86.5,73.8,29.83,West,270,4.0,6.0,66,0.00,,,0.00,meteohub,2013-06-10 20:52:00,
2013-06-10 15:57:00,86.9,74.1,29.81,NW,315,4.0,6.0,66,0.00,,,0.00,meteohub,2013-06-10 20:57:00,
2013-06-10 16:02:00,87.1,74.3,29.81,WSW,248,5.0,6.0,66,0.00,,,0.00,meteohub,2013-06-10 21:02:00,
2013-06-10 16:07:00,87.1,73.9,29.81,WNW,293,5.0,6.0,65,0.00,,,0.00,meteohub,2013-06-10 21:07:00,
2013-06-10 16:12:00,87.3,74.1,29.81,West,270,4.0,8.0,65,0.00,,,0.00,meteohub,2013-06-10 21:12:00,
2013-06-10 16:17:00,87.3,74.1,29.81,NNW,338,2.0,8.0,65,0.00,,,0.00,meteohub,2013-06-10 21:17:00,
2013-06-10 16:22:00,87.4,73.8,29.81,WSW,248,3.0,7.0,64,0.00,,,0.00,meteohub,2013-06-10 21:22:00,
2013-06-10 16:27:00,87.8,74.5,29.81,WNW,293,5.0,6.0,65,0.00,,,0.00,meteohub,2013-06-10 21:27:00,
2013-06-10 16:32:00,87.8,74.1,29.81,WNW,293,4.0,6.0,64,0.00,,,0.00,meteohub,2013-06-10 21:32:00,
2013-06-10 16:37:00,87.8,74.1,29.82,WSW,248,4.0,6.0,64,0.00,,,0.00,meteohub,2013-06-10 21:37:00,
2013-06-10 16:42:00,87.8,74.5,29.82,West,270,7.0,7.0,65,0.00,,,0.00,meteohub,2013-06-10 21:42:00,
2013-06-10 16:47:00,88.0,74.3,29.82,WSW,248,7.0,7.0,64,0.00,,,0.00,meteohub,2013-06-10 21:47:00,
2013-06-10 16:52:00,88.0,74.3,29.82,West,270,6.0,7.0,64,0.00,,,0.00,meteohub,2013-06-10 21:52:00,
2013-06-10 16:58:00,88.0,74.3,29.81,WSW,248,4.0,7.0,64,0.00,,,0.00,meteohub,2013-06-10 21:58:00,
2013-06-10 17:03:00,88.2,74.5,29.81,SW,225,5.0,7.0,64,0.00,,,0.00,meteohub,2013-06-10 22:03:00,
2013-06-10 17:08:00,88.3,74.7,29.81,WSW,248,6.0,6.0,64,0.00,,,0.00,meteohub,2013-06-10 22:08:00,
2013-06-10 17:13:00,88.5,74.8,29.81,SW,225,3.0,6.0,64,0.00,,,0.00,meteohub,2013-06-10 22:13:00,
2013-06-10 17:18:00,88.9,75.6,29.81,ESE,113,5.0,6.0,65,0.00,,,0.00,meteohub,2013-06-10 22:18:00,
2013-06-10 17:23:00,89.1,75.2,29.81,NW,315,4.0,6.0,64,0.00,,,0.00,meteohub,2013-06-10 22:23:00,
2013-06-10 17:28:00,89.1,74.8,29.81,West,270,5.0,8.0,63,0.00,,,0.00,meteohub,2013-06-10 22:28:00,
2013-06-10 17:33:00,89.1,74.8,29.81,WSW,248,3.0,8.0,63,0.00,,,0.00,meteohub,2013-06-10 22:33:00,
2013-06-10 17:38:00,89.1,74.8,29.81,NW,315,3.0,8.0,63,0.00,,,0.00,meteohub,2013-06-10 22:38:00,
2013-06-10 17:43:00,89.1,74.8,29.81,WSW,248,4.0,5.0,63,0.00,,,0.00,meteohub,2013-06-10 22:43:00,
2013-06-10 17:48:00,89.4,75.2,29.81,SW,225,5.0,5.0,63,0.00,,,0.00,meteohub,2013-06-10 22:48:00,
2013-06-10 17:53:00,89.4,75.2,29.81,West,270,3.0,6.0,63,0.00,,,0.00,meteohub,2013-06-10 22:53:00,
2013-06-10 17:58:00,89.6,74.8,29.81,SW,225,4.0,6.0,62,0.00,,,0.00,meteohub,2013-06-10 22:58:00,
2013-06-10 18:03:00,89.6,74.8,29.81,SSW,203,3.0,5.0,62,0.00,,,0.00,meteohub,2013-06-10 23:03:00,
2013-06-10 18:08:00,89.6,75.4,29.81,NW,315,2.0,5.0,63,0.00,,,0.00,meteohub,2013-06-10 23:08:00,
2013-06-10 18:13:00,89.6,75.4,29.81,West,270,2.0,4.0,63,0.00,,,0.00,meteohub,2013-06-10 23:13:00,
2013-06-10 18:18:00,89.8,75.0,29.80,NW,315,3.0,4.0,62,0.00,,,0.00,meteohub,2013-06-10 23:18:00,
2013-06-10 18:23:00,90.0,75.2,29.80,West,270,4.0,4.0,62,0.00,,,0.00,meteohub,2013-06-10 23:23:00,
2013-06-10 18:28:00,89.8,75.0,29.80,SSW,203,3.0,4.0,62,0.00,,,0.00,meteohub,2013-06-10 23:28:00,
2013-06-10 18:33:00,90.0,75.2,29.80,WNW,293,4.0,5.0,62,0.00,,,0.00,meteohub,2013-06-10 23:33:00,
2013-06-10 18:38:00,90.1,75.4,29.78,West,270,2.0,5.0,62,0.00,,,0.00,meteohub,2013-06-10 23:38:00,
2013-06-10 18:43:00,90.0,75.2,29.78,West,270,2.0,5.0,62,0.00,,,0.00,meteohub,2013-06-10 23:43:00,
2013-06-10 18:48:00,90.1,75.9,29.78,SW,225,2.0,4.0,63,0.00,,,0.00,meteohub,2013-06-10 23:48:00,
2013-06-10 18:53:00,90.0,75.2,29.78,SW,225,3.0,4.0,62,0.00,,,0.00,meteohub,2013-06-10 23:53:00,
2013-06-10 18:58:00,89.8,75.6,29.81,WNW,293,2.0,4.0,63,0.00,,,0.00,meteohub,2013-06-10 23:58:00,
2013-06-10 19:03:00,89.6,75.4,29.81,South,180,2.0,4.0,63,0.00,,,0.00,meteohub,2013-06-11 00:03:00,
2013-06-10 19:08:00,89.4,75.2,29.81,WSW,248,0.0,4.0,63,0.00,,,0.00,meteohub,2013-06-11 00:08:00,
2013-06-10 19:13:00,89.2,75.0,29.81,SSW,203,0.0,3.0,63,0.00,,,0.00,meteohub,2013-06-11 00:13:00,
2013-06-10 19:18:00,89.1,75.2,29.81,SSW,203,1.0,2.0,64,0.00,,,0.00,meteohub,2013-06-11 00:18:00,
2013-06-10 19:23:00,88.3,74.7,29.81,South,180,2.0,2.0,64,0.00,,,0.00,meteohub,2013-06-11 00:23:00,
2013-06-10 19:28:00,87.8,74.1,29.81,SSW,203,1.0,2.0,64,0.00,,,0.00,meteohub,2013-06-11 00:28:00,
2013-06-10 19:33:00,87.4,74.3,29.81,South,180,0.0,2.0,65,0.00,,,0.00,meteohub,2013-06-11 00:33:00,
2013-06-10 19:38:00,87.3,74.1,29.81,South,180,0.0,2.0,65,0.00,,,0.00,meteohub,2013-06-11 00:38:00,
2013-06-10 19:43:00,86.5,73.8,29.82,South,180,0.0,2.0,66,0.00,,,0.00,meteohub,2013-06-11 00:43:00,
2013-06-10 19:48:00,86.0,73.8,29.82,South,180,0.0,2.0,67,0.00,,,0.00,meteohub,2013-06-11 00:48:00,
2013-06-10 19:53:00,85.5,73.8,29.82,South,180,0.0,2.0,68,0.00,,,0.00,meteohub,2013-06-11 00:53:00,
2013-06-10 19:58:00,85.3,73.6,29.82,South,180,0.0,2.0,68,0.00,,,0.00,meteohub,2013-06-11 00:58:00,
2013-06-10 20:03:00,84.7,73.9,29.83,SW,225,2.0,0.0,70,0.00,,,0.00,meteohub,2013-06-11 01:03:00,
2013-06-10 20:08:00,84.6,73.8,29.83,South,180,2.0,2.0,70,0.00,,,0.00,meteohub,2013-06-11 01:08:00,
2013-06-10 20:13:00,84.2,73.8,29.83,SW,225,0.0,3.0,71,0.00,,,0.00,meteohub,2013-06-11 01:13:00,
2013-06-10 20:18:00,83.8,73.4,29.83,South,180,2.0,3.0,71,0.00,,,0.00,meteohub,2013-06-11 01:18:00,
2013-06-10 20:23:00,83.7,73.2,29.83,SW,225,2.0,3.0,71,0.00,,,0.00,meteohub,2013-06-11 01:23:00,
2013-06-10 20:28:00,83.5,73.0,29.83,WNW,293,2.0,3.0,71,0.00,,,0.00,meteohub,2013-06-11 01:28:00,
2013-06-10 20:33:00,83.5,73.0,29.83,WSW,248,1.0,3.0,71,0.00,,,0.00,meteohub,2013-06-11 01:33:00,
2013-06-10 20:38:00,83.5,73.0,29.83,SW,225,2.0,3.0,71,0.00,,,0.00,meteohub,2013-06-11 01:38:00,
2013-06-10 20:43:00,83.1,72.7,29.83,SW,225,0.0,3.0,71,0.00,,,0.00,meteohub,2013-06-11 01:43:00,
2013-06-10 20:48:00,83.1,72.7,29.83,South,180,2.0,3.0,71,0.00,,,0.00,meteohub,2013-06-11 01:48:00,
2013-06-10 20:54:00,82.6,72.1,29.83,SW,225,0.0,2.0,71,0.00,,,0.00,meteohub,2013-06-11 01:54:00,
2013-06-10 20:59:00,82.0,71.8,29.83,South,180,0.0,2.0,71,0.00,,,0.00,meteohub,2013-06-11 01:59:00,
2013-06-10 21:04:00,81.5,71.6,29.83,South,180,0.0,2.0,72,0.00,,,0.00,meteohub,2013-06-11 02:04:00,
2013-06-10 21:09:00,81.0,71.4,29.83,South,180,0.0,1.0,73,0.00,,,0.00,meteohub,2013-06-11 02:09:00,
2013-06-10 21:14:00,80.4,70.9,29.83,SSE,158,0.0,1.0,73,0.00,,,0.00,meteohub,2013-06-11 02:14:00,
2013-06-10 21:19:00,79.7,70.7,29.84,WSW,248,0.0,0.0,74,0.00,,,0.00,meteohub,2013-06-11 02:19:00,
2013-06-10 21:24:00,79.3,70.7,29.84,SW,225,0.0,0.0,75,0.00,,,0.00,meteohub,2013-06-11 02:24:00,
2013-06-10 21:29:00,79.0,70.3,29.84,SW,225,0.0,0.0,75,0.00,,,0.00,meteohub,2013-06-11 02:29:00,
2013-06-10 21:34:00,78.3,70.0,29.84,South,180,0.0,0.0,76,0.00,,,0.00,meteohub,2013-06-11 02:34:00,
2013-06-10 21:39:00,77.7,70.0,29.86,SSE,158,0.0,0.0,77,0.00,,,0.00,meteohub,2013-06-11 02:39:00,
2013-06-10 21:44:00,77.5,69.8,29.86,ESE,113,0.0,0.0,77,0.00,,,0.00,meteohub,2013-06-11 02:44:00,
2013-06-10 21:49:00,77.2,69.8,29.86,SE,135,0.0,0.0,78,0.00,,,0.00,meteohub,2013-06-11 02:49:00,
2013-06-10 21:54:00,77.2,69.8,29.86,ESE,113,0.0,0.0,78,0.00,,,0.00,meteohub,2013-06-11 02:54:00,
2013-06-10 21:59:00,77.0,70.0,29.86,WSW,248,0.0,0.0,79,0.00,,,0.00,meteohub,2013-06-11 02:59:00,
2013-06-10 22:04:00,76.8,69.8,29.86,WSW,248,0.0,0.0,79,0.00,,,0.00,meteohub,2013-06-11 03:04:00,
2013-06-10 22:09:00,76.5,69.4,29.86,WSW,248,0.0,0.0,79,0.00,,,0.00,meteohub,2013-06-11 03:09:00,
2013-06-10 22:14:00,76.1,69.4,29.86,WSW,248,0.0,0.0,80,0.00,,,0.00,meteohub,2013-06-11 03:14:00,
2013-06-10 22:19:00,75.7,69.1,29.88,WSW,248,0.0,0.0,80,0.00,,,0.00,meteohub,2013-06-11 03:19:00,
2013-06-10 22:24:00,75.6,68.9,29.88,WSW,248,0.0,0.0,80,0.00,,,0.00,meteohub,2013-06-11 03:24:00,
2013-06-10 22:29:00,75.4,69.1,29.88,WSW,248,0.0,0.0,81,0.00,,,0.00,meteohub,2013-06-11 03:29:00,
2013-06-10 22:34:00,75.0,68.7,29.88,South,180,0.0,0.0,81,0.00,,,0.00,meteohub,2013-06-11 03:34:00,
2013-06-10 22:39:00,75.0,69.1,29.87,South,180,0.0,0.0,82,0.00,,,0.00,meteohub,2013-06-11 03:39:00,
2013-06-10 22:44:00,74.7,68.7,29.88,South,180,0.0,0.0,82,0.00,,,0.00,meteohub,2013-06-11 03:44:00,
2013-06-10 22:49:00,74.7,68.7,29.88,South,180,0.0,0.0,82,0.00,,,0.00,meteohub,2013-06-11 03:49:00,
2013-06-10 22:54:00,74.1,68.2,29.88,South,180,0.0,0.0,82,0.00,,,0.00,meteohub,2013-06-11 03:54:00,
2013-06-10 22:59:00,73.9,68.4,29.88,SW,225,0.0,0.0,83,0.00,,,0.00,meteohub,2013-06-11 03:59:00,
2013-06-10 23:01:00,73.9,68.4,29.88,SW,225,0.0,0.0,83,0.00,,,0.00,meteohub,2013-06-11 04:01:00,
2013-06-10 23:02:00,73.8,68.4,29.88,SW,225,0.0,0.0,83,0.00,,,0.00,meteohub,2013-06-11 04:02:00,
2013-06-10 23:07:00,73.8,68.4,29.88,SW,225,0.0,0.0,83,0.00,,,0.00,meteohub,2013-06-11 04:07:00,
2013-06-10 23:12:00,73.6,68.2,29.88,SSW,203,0.0,0.0,83,0.00,,,0.00,meteohub,2013-06-11 04:12:00,
2013-06-10 23:17:00,73.6,68.4,29.89,SSW,203,0.0,0.0,84,0.00,,,0.00,meteohub,2013-06-11 04:17:00,
2013-06-10 23:22:00,73.2,68.2,29.89,SSW,203,0.0,0.0,84,0.00,,,0.00,meteohub,2013-06-11 04:22:00,
2013-06-10 23:27:00,72.9,67.8,29.89,South,180,0.0,0.0,84,0.00,,,0.00,meteohub,2013-06-11 04:27:00,
2013-06-10 23:32:00,72.7,67.6,29.90,South,180,0.0,0.0,84,0.00,,,0.00,meteohub,2013-06-11 04:32:00,
2013-06-10 23:37:00,72.9,68.0,29.89,SW,225,0.0,0.0,85,0.00,,,0.00,meteohub,2013-06-11 04:37:00,
2013-06-10 23:42:00,72.3,67.3,29.89,SW,225,0.0,0.0,84,0.00,,,0.00,meteohub,2013-06-11 04:42:00,
2013-06-10 23:47:00,72.1,67.5,29.89,SW,225,0.0,0.0,85,0.00,,,0.00,meteohub,2013-06-11 04:47:00,
2013-06-10 23:52:00,72.1,67.5,29.89,SW,225,0.0,0.0,85,0.00,,,0.00,meteohub,2013-06-11 04:52:00,
2013-06-10 23:57:00,72.0,67.3,29.89,WSW,248,0.0,0.0,85,0.00,,,0.00,meteohub,2013-06-11 04:57:00,